createdAt,value
2023-06-11T00:01:28.125Z,101304.66
2023-06-11T00:03:55.318Z,101310.19
2023-06-11T00:06:24.239Z,101319.28
2023-06-11T00:08:53.273Z,101314.00
2023-06-11T00:11:21.302Z,101311.44
2023-06-11T00:13:48.554Z,101315.25
2023-06-11T00:16:16.350Z,101319.06
2023-06-11T00:18:44.081Z,101318.34
2023-06-11T00:21:12.469Z,101329.22
2023-06-11T00:23:39.838Z,101323.16
2023-06-11T00:26:08.819Z,101319.63
2023-06-11T00:28:36.113Z,101326.91
2023-06-11T00:31:06.762Z,101314.47
2023-06-11T00:33:33.702Z,101318.28
2023-06-11T00:36:00.584Z,101321.94
2023-06-11T00:38:27.444Z,101324.84
2023-06-11T00:40:54.294Z,101325.88
2023-06-11T00:43:24.158Z,101318.88
2023-06-11T00:45:55.608Z,101323.50
2023-06-11T00:48:22.579Z,101325.50
2023-06-11T00:50:53.730Z,101330.94
2023-06-11T00:53:22.904Z,101321.31
2023-06-11T00:55:49.830Z,101320.50
2023-06-11T00:58:18.431Z,101328.75
2023-06-11T01:00:50.516Z,101330.63
2023-06-11T01:03:23.544Z,101323.63
2023-06-11T01:06:02.597Z,101325.53
2023-06-11T01:08:36.277Z,101323.91
2023-06-11T01:11:03.919Z,101331.25
2023-06-11T01:13:30.834Z,101325.09
2023-06-11T01:16:08.212Z,101330.66
2023-06-11T01:18:48.004Z,101335.34
2023-06-11T01:21:22.728Z,101334.47
2023-06-11T01:24:16.694Z,101330.19
2023-06-11T01:27:23.690Z,101330.50
2023-06-11T01:29:51.181Z,101326.97
2023-06-11T01:32:24.997Z,101324.31
2023-06-11T01:34:51.912Z,101334.34
2023-06-11T01:37:18.758Z,101329.91
2023-06-11T01:39:46.665Z,101333.66
2023-06-11T01:42:13.532Z,101328.38
2023-06-11T01:44:40.381Z,101329.38
2023-06-11T01:47:07.277Z,101332.22
2023-06-11T01:49:34.076Z,101335.06
2023-06-11T01:52:00.934Z,101335.16
2023-06-11T01:54:28.459Z,101335.31
2023-06-11T01:56:55.391Z,101334.56
2023-06-11T01:59:22.267Z,101326.66
2023-06-11T02:01:54.302Z,101328.53
2023-06-11T02:04:21.964Z,101328.72
2023-06-11T02:06:50.206Z,101323.50
2023-06-11T02:09:17.079Z,101324.53
2023-06-11T02:11:43.906Z,101327.41
2023-06-11T02:14:10.800Z,101327.53
2023-06-11T02:16:37.627Z,101322.22
2023-06-11T02:19:04.500Z,101324.19
2023-06-11T02:21:31.582Z,101327.91
2023-06-11T02:23:58.510Z,101333.41
2023-06-11T02:26:25.457Z,101332.66
2023-06-11T02:28:53.467Z,101333.66
2023-06-11T02:31:20.309Z,101334.66
2023-06-11T02:33:47.153Z,101328.50
2023-06-11T02:36:13.947Z,101333.06
2023-06-11T02:38:40.817Z,101334.13
2023-06-11T02:41:07.610Z,101329.75
2023-06-11T02:43:34.754Z,101337.00
2023-06-11T02:46:01.632Z,101336.22
2023-06-11T02:48:28.527Z,101326.41
2023-06-11T02:50:55.365Z,101331.00
2023-06-11T02:53:22.183Z,101325.72
2023-06-11T02:55:49.064Z,101332.97
2023-06-11T02:58:15.944Z,101325.03
2023-06-11T03:00:42.783Z,101333.22
2023-06-11T03:03:09.668Z,101342.28
2023-06-11T03:05:36.504Z,101343.25
2023-06-11T03:08:03.351Z,101342.50
2023-06-11T03:10:30.154Z,101342.66
2023-06-11T03:12:57.190Z,101341.78
2023-06-11T03:15:24.331Z,101339.25
2023-06-11T03:17:51.169Z,101351.88
2023-06-11T03:20:17.982Z,101352.84
2023-06-11T03:22:44.786Z,101352.94
2023-06-11T03:25:14.177Z,101353.94
2023-06-11T03:27:41.236Z,101347.72
2023-06-11T03:30:08.777Z,101347.84
2023-06-11T03:32:35.824Z,101352.47
2023-06-11T03:35:02.691Z,101354.34
2023-06-11T03:37:29.527Z,101354.41
2023-06-11T03:39:56.317Z,101355.38
2023-06-11T03:42:23.169Z,101351.00
2023-06-11T03:44:50.808Z,101349.22
2023-06-11T03:47:17.671Z,101349.34
2023-06-11T03:49:44.867Z,101354.78
2023-06-11T03:52:11.977Z,101356.72
2023-06-11T03:54:38.841Z,101348.69
2023-06-11T03:57:06.017Z,101351.34
2023-06-11T03:59:32.848Z,101361.22
2023-06-11T04:02:03.629Z,101355.88
2023-06-11T04:04:30.611Z,101354.16
2023-06-11T04:06:57.515Z,101350.63
2023-06-11T04:09:24.397Z,101354.19
2023-06-11T04:11:51.281Z,101354.19
2023-06-11T04:14:18.859Z,101356.84
2023-06-11T04:16:46.092Z,101355.97
2023-06-11T04:19:13.680Z,101357.69
2023-06-11T04:21:40.660Z,101365.75
2023-06-11T04:24:09.630Z,101369.28
2023-06-11T04:26:38.071Z,101353.09
2023-06-11T04:29:05.017Z,101362.00
2023-06-11T04:31:32.222Z,101363.75
2023-06-11T04:34:04.098Z,101368.22
2023-06-11T04:36:31.012Z,101360.13
2023-06-11T04:39:02.640Z,101366.41
2023-06-11T04:41:30.594Z,101359.13
2023-06-11T04:43:57.498Z,101351.00
2023-06-11T04:46:24.442Z,101362.59
2023-06-11T04:48:51.586Z,101364.34
2023-06-11T04:51:22.385Z,101363.44
2023-06-11T04:53:53.259Z,101364.28
2023-06-11T04:56:20.145Z,101369.59
2023-06-11T04:58:46.969Z,101371.34
2023-06-11T05:01:13.958Z,101361.31
2023-06-11T05:03:40.800Z,101365.75
2023-06-11T05:06:09.485Z,101365.56
2023-06-11T05:08:36.325Z,101360.97
2023-06-11T05:11:03.193Z,101361.72
2023-06-11T05:13:30.145Z,101363.41
2023-06-11T05:15:58.790Z,101363.31
2023-06-11T05:18:29.875Z,101366.66
2023-06-11T05:20:56.815Z,101367.47
2023-06-11T05:23:29.660Z,101367.22
2023-06-11T05:26:02.357Z,101361.75
2023-06-11T05:28:29.285Z,101358.09
2023-06-11T05:30:56.083Z,101374.16
2023-06-11T05:33:23.720Z,101364.88
2023-06-11T05:35:52.634Z,101363.38
2023-06-11T05:38:20.299Z,101365.69
2023-06-11T05:40:47.171Z,101358.25
2023-06-11T05:43:14.005Z,101365.31
2023-06-11T05:45:50.948Z,101367.00
2023-06-11T05:48:18.425Z,101371.38
2023-06-11T05:50:45.317Z,101366.63
2023-06-11T05:53:12.131Z,101379.06
2023-06-11T05:55:39.016Z,101369.88
2023-06-11T05:58:06.873Z,101372.38
2023-06-11T06:00:33.729Z,101374.91
2023-06-11T06:03:02.671Z,101371.13
2023-06-11T06:05:29.894Z,101377.13
2023-06-11T06:07:57.373Z,101373.31
2023-06-11T06:10:24.525Z,101374.81
2023-06-11T06:12:51.380Z,101370.06
2023-06-11T06:15:18.190Z,101374.34
2023-06-11T06:17:45.198Z,101383.06
2023-06-11T06:20:12.985Z,101385.53
2023-06-11T06:22:40.106Z,101389.81
2023-06-11T06:25:07.504Z,101382.31
2023-06-11T06:27:34.339Z,101382.03
2023-06-11T06:30:02.641Z,101382.56
2023-06-11T06:32:29.862Z,101385.81
2023-06-11T06:34:56.709Z,101382.81
2023-06-11T06:37:25.192Z,101379.84
2023-06-11T06:39:52.031Z,101392.13
2023-06-11T06:42:18.872Z,101386.47
2023-06-11T06:44:45.672Z,101385.34
2023-06-11T06:47:12.516Z,101391.25
2023-06-11T06:49:39.904Z,101379.28
2023-06-11T06:52:08.127Z,101381.69
2023-06-11T06:54:34.990Z,101385.00
2023-06-11T06:57:01.829Z,101384.78
2023-06-11T06:59:28.714Z,101389.09
2023-06-11T07:01:55.726Z,101393.41
2023-06-11T07:04:22.554Z,101394.13
2023-06-11T07:06:49.376Z,101396.63
2023-06-11T07:09:16.177Z,101392.81
2023-06-11T07:11:43.008Z,101397.88
2023-06-11T07:14:09.824Z,101391.94
2023-06-11T07:16:36.800Z,101393.13
2023-06-11T07:19:03.677Z,101398.31
2023-06-11T07:21:30.600Z,101393.53
2023-06-11T07:23:59.850Z,101397.50
2023-06-11T07:26:26.671Z,101393.09
2023-06-11T07:28:53.538Z,101399.69
2023-06-11T07:31:20.526Z,101386.88
2023-06-11T07:33:49.046Z,101394.13
2023-06-11T07:36:17.094Z,101392.97
2023-06-11T07:38:45.047Z,101385.59
2023-06-11T07:41:13.969Z,101390.56
2023-06-11T07:43:40.847Z,101391.88
2023-06-11T07:46:07.782Z,101382.94
2023-06-11T07:48:34.654Z,101393.78
2023-06-11T07:51:01.774Z,101397.31
2023-06-11T07:53:28.587Z,101390.94
2023-06-11T07:55:58.301Z,101394.59
2023-06-11T07:58:25.645Z,101401.88
2023-06-11T08:00:52.499Z,101397.31
2023-06-11T08:03:19.370Z,101394.59
2023-06-11T08:05:46.480Z,101396.44
2023-06-11T08:08:13.320Z,101401.78
2023-06-11T08:10:40.118Z,101399.84
2023-06-11T08:13:07.089Z,101396.97
2023-06-11T08:15:34.441Z,101387.69
2023-06-11T08:18:01.354Z,101388.31
2023-06-11T08:20:28.238Z,101385.44
2023-06-11T08:22:55.032Z,101385.25
2023-06-11T08:25:21.929Z,101379.75
2023-06-11T08:27:48.824Z,101385.19
2023-06-11T08:30:15.708Z,101384.94
2023-06-11T08:32:42.574Z,101393.84
2023-06-11T08:35:09.700Z,101382.97
2023-06-11T08:37:36.568Z,101386.31
2023-06-11T08:40:05.043Z,101379.81
2023-06-11T08:42:31.927Z,101380.00
2023-06-11T08:44:58.790Z,101391.75
2023-06-11T08:47:26.983Z,101392.44
2023-06-11T08:49:56.530Z,101387.72
2023-06-11T08:52:26.748Z,101394.78
2023-06-11T08:54:54.172Z,101391.69
2023-06-11T08:57:21.424Z,101388.81
2023-06-11T08:59:48.238Z,101387.75
2023-06-11T09:02:15.146Z,101397.75
2023-06-11T09:04:44.908Z,101397.56
2023-06-11T09:07:11.798Z,101384.59
2023-06-11T09:09:38.651Z,101387.16
2023-06-11T09:12:09.025Z,101385.91
2023-06-11T09:14:35.845Z,101382.84
2023-06-11T09:17:02.748Z,101378.78
2023-06-11T09:19:29.646Z,101385.50
2023-06-11T09:21:57.559Z,101387.72
2023-06-11T09:24:26.252Z,101376.28
2023-06-11T09:26:58.691Z,101374.00
2023-06-11T09:29:27.966Z,101377.13
2023-06-11T09:32:23.288Z,101370.25
2023-06-11T09:34:56.750Z,101382.34
2023-06-11T09:37:24.025Z,101381.06
2023-06-11T09:39:51.490Z,101375.25
2023-06-11T09:42:27.370Z,101374.72
2023-06-11T09:45:00.127Z,101378.03
2023-06-11T09:47:29.738Z,101377.63
2023-06-11T09:49:59.006Z,101369.06
2023-06-11T09:52:30.406Z,101369.47
2023-06-11T09:54:57.648Z,101376.28
2023-06-11T09:57:25.272Z,101380.44
2023-06-11T09:59:52.442Z,101379.97
2023-06-11T10:02:19.318Z,101376.84
2023-06-11T10:04:46.674Z,101369.28
2023-06-11T10:07:13.811Z,101388.94
2023-06-11T10:09:42.440Z,101381.34
2023-06-11T10:12:10.069Z,101381.78
2023-06-11T10:14:38.363Z,101385.22
2023-06-11T10:17:09.660Z,101382.28
2023-06-11T10:19:39.733Z,101382.94
2023-06-11T10:22:07.363Z,101374.47
2023-06-11T10:24:34.310Z,101377.84
2023-06-11T10:27:11.740Z,101370.38
2023-06-11T10:29:47.673Z,101371.69
2023-06-11T10:32:19.073Z,101379.88
2023-06-11T10:34:49.008Z,101374.13
2023-06-11T10:37:16.307Z,101385.81
2023-06-11T10:39:52.705Z,101382.69
2023-06-11T10:42:39.882Z,101377.91
2023-06-11T10:45:09.706Z,101378.91
2023-06-11T10:47:49.893Z,101379.44
2023-06-11T10:50:25.022Z,101381.09
2023-06-11T10:52:57.590Z,101377.50
2023-06-11T10:55:27.358Z,101379.25
2023-06-11T10:57:54.799Z,101374.44
2023-06-11T11:00:22.672Z,101373.34
2023-06-11T11:02:51.729Z,101374.03
2023-06-11T11:05:18.771Z,101378.19
2023-06-11T11:07:46.985Z,101368.94
2023-06-11T11:10:20.586Z,101372.31
2023-06-11T11:12:48.590Z,101370.56
2023-06-11T11:15:16.199Z,101362.28
2023-06-11T11:17:46.893Z,101357.47
2023-06-11T11:20:20.405Z,101356.09
2023-06-11T11:22:55.677Z,101353.13
2023-06-11T11:25:26.080Z,101343.78
2023-06-11T11:27:52.911Z,101342.59
2023-06-11T11:30:19.883Z,101343.38
2023-06-11T11:32:47.177Z,101346.84
2023-06-11T11:35:15.757Z,101340.31
2023-06-11T11:37:42.668Z,101335.50
2023-06-11T11:40:12.178Z,101331.56
2023-06-11T11:42:53.372Z,101335.59
2023-06-11T11:45:31.363Z,101338.13
2023-06-11T11:48:00.430Z,101334.19
2023-06-11T11:50:33.067Z,101338.31
2023-06-11T11:53:15.981Z,101325.13
2023-06-11T11:55:56.704Z,101328.50
2023-06-11T11:58:38.392Z,101336.25
2023-06-11T12:01:05.835Z,101326.97
2023-06-11T12:03:32.976Z,101332.09
2023-06-11T12:06:07.876Z,101338.03
2023-06-11T12:08:36.664Z,101328.72
2023-06-11T12:11:07.291Z,101324.66
2023-06-11T12:13:34.750Z,101329.16
2023-06-11T12:16:04.593Z,101337.88
2023-06-11T12:18:33.477Z,101330.31
2023-06-11T12:21:00.292Z,101331.59
2023-06-11T12:23:27.167Z,101319.34
2023-06-11T12:25:54.822Z,101320.41
2023-06-11T12:28:21.882Z,101323.22
2023-06-11T12:30:49.110Z,101318.28
2023-06-11T12:33:16.866Z,101325.28
2023-06-11T12:35:44.311Z,101314.84
2023-06-11T12:38:11.585Z,101314.41
2023-06-11T12:40:38.723Z,101316.44
2023-06-11T12:43:05.679Z,101311.34
2023-06-11T12:45:36.558Z,101311.53
2023-06-11T12:48:03.843Z,101322.03
2023-06-11T12:50:30.713Z,101300.66
2023-06-11T12:52:57.885Z,101300.03
2023-06-11T12:55:25.767Z,101302.06
2023-06-11T12:57:52.915Z,101303.09
2023-06-11T13:00:20.110Z,101297.84
2023-06-11T13:02:47.209Z,101306.81
2023-06-11T13:05:14.066Z,101300.97
2023-06-11T13:07:41.103Z,101308.41
2023-06-11T13:10:08.950Z,101305.56
2023-06-11T13:12:36.165Z,101295.22
2023-06-11T13:15:03.158Z,101302.47
2023-06-11T13:17:30.090Z,101298.09
2023-06-11T13:19:57.094Z,101297.84
2023-06-11T13:22:23.950Z,101289.41
2023-06-11T13:24:50.874Z,101291.03
2023-06-11T13:27:17.749Z,101288.06
2023-06-11T13:29:44.683Z,101289.06
2023-06-11T13:32:11.489Z,101286.03
2023-06-11T13:34:38.926Z,101288.50
2023-06-11T13:37:06.196Z,101283.75
2023-06-11T13:39:34.175Z,101284.72
2023-06-11T13:42:01.622Z,101291.94
2023-06-11T13:44:28.475Z,101278.75
2023-06-11T13:46:55.464Z,101278.91
2023-06-11T13:49:23.404Z,101278.28
2023-06-11T13:51:51.802Z,101284.03
2023-06-11T13:54:18.739Z,101292.66
2023-06-11T13:56:48.636Z,101283.72
2023-06-11T13:59:15.577Z,101284.84
2023-06-11T14:01:43.196Z,101283.22
2023-06-11T14:04:10.785Z,101282.56
2023-06-11T14:06:37.959Z,101280.81
2023-06-11T14:09:05.370Z,101282.09
2023-06-11T14:11:32.433Z,101279.59
2023-06-11T14:14:00.122Z,101270.63
2023-06-11T14:16:27.926Z,101279.06
2023-06-11T14:18:54.814Z,101280.53
2023-06-11T14:21:21.668Z,101276.81
2023-06-11T14:23:48.803Z,101282.03
2023-06-11T14:26:15.965Z,101266.06
2023-06-11T14:28:42.752Z,101270.69
2023-06-11T14:31:09.644Z,101269.81
2023-06-11T14:33:36.540Z,101270.56
2023-06-11T14:36:06.104Z,101270.28
2023-06-11T14:38:34.200Z,101250.09
2023-06-11T14:41:01.185Z,101263.44
2023-06-11T14:43:28.071Z,101261.44
2023-06-11T14:45:54.931Z,101264.31
2023-06-11T14:48:21.816Z,101252.47
2023-06-11T14:50:48.654Z,101257.31
2023-06-11T14:53:15.618Z,101258.72
2023-06-11T14:55:43.743Z,101252.63
2023-06-11T14:58:10.636Z,101248.13
2023-06-11T15:00:37.543Z,101242.66
2023-06-11T15:03:04.561Z,101243.53
2023-06-11T15:05:31.551Z,101251.13
2023-06-11T15:07:58.397Z,101250.66
2023-06-11T15:10:25.421Z,101235.69
2023-06-11T15:12:53.325Z,101237.97
2023-06-11T15:15:20.157Z,101249.19
2023-06-11T15:17:47.148Z,101245.69
2023-06-11T15:20:14.556Z,101242.22
2023-06-11T15:22:42.013Z,101239.59
2023-06-11T15:25:12.256Z,101241.47
2023-06-11T15:27:39.131Z,101237.84
2023-06-11T15:30:07.408Z,101235.25
2023-06-11T15:32:34.293Z,101230.78
2023-06-11T15:35:01.206Z,101234.38
2023-06-11T15:37:28.177Z,101227.28
2023-06-11T15:39:54.994Z,101224.53
2023-06-11T15:42:21.838Z,101230.28
2023-06-11T15:44:51.245Z,101229.50
2023-06-11T15:47:18.412Z,101225.03
2023-06-11T15:49:45.453Z,101221.53
2023-06-11T15:52:12.365Z,101216.03
2023-06-11T15:54:39.249Z,101212.31
2023-06-11T15:57:07.326Z,101208.84
2023-06-11T15:59:34.951Z,101221.78
2023-06-11T16:02:02.009Z,101208.22
2023-06-11T16:04:32.479Z,101208.22
2023-06-11T16:07:05.150Z,101208.34
2023-06-11T16:09:33.222Z,101206.59
2023-06-11T16:12:00.220Z,101208.47
2023-06-11T16:14:27.062Z,101209.63
2023-06-11T16:16:53.886Z,101205.25
2023-06-11T16:19:20.806Z,101211.84
2023-06-11T16:21:47.961Z,101210.38
2023-06-11T16:24:14.914Z,101209.50
2023-06-11T16:26:41.940Z,101209.72
2023-06-11T16:29:09.089Z,101210.88
2023-06-11T16:31:35.916Z,101210.88
2023-06-11T16:34:02.861Z,101212.63
2023-06-11T16:36:30.095Z,101204.41
2023-06-11T16:39:06.157Z,101209.88
2023-06-11T16:41:45.523Z,101210.00
2023-06-11T16:44:12.461Z,101209.13
2023-06-11T16:46:39.480Z,101212.84
2023-06-11T16:49:06.630Z,101216.59
2023-06-11T16:51:33.574Z,101206.75
2023-06-11T16:54:00.434Z,101199.69
2023-06-11T16:56:27.330Z,101194.31
2023-06-11T16:58:56.007Z,101196.94
2023-06-11T17:01:24.593Z,101201.53
2023-06-11T17:03:51.573Z,101198.19
2023-06-11T17:06:18.540Z,101194.69
2023-06-11T17:08:45.523Z,101193.09
2023-06-11T17:11:12.474Z,101187.84
2023-06-11T17:13:39.377Z,101191.72
2023-06-11T17:16:06.845Z,101193.66
2023-06-11T17:18:37.017Z,101184.72
2023-06-11T17:21:04.653Z,101189.44
2023-06-11T17:23:31.551Z,101185.09
2023-06-11T17:25:58.370Z,101193.41
2023-06-11T17:28:25.307Z,101191.66
2023-06-11T17:30:52.233Z,101187.06
2023-06-11T17:33:20.711Z,101189.94
2023-06-11T17:35:48.491Z,101180.09
2023-06-11T17:38:15.449Z,101182.22
2023-06-11T17:40:42.429Z,101178.00
2023-06-11T17:43:09.259Z,101181.81
2023-06-11T17:45:36.112Z,101180.22
2023-06-11T17:48:03.119Z,101176.75
2023-06-11T17:50:30.158Z,101172.28
2023-06-11T17:52:57.292Z,101182.44
2023-06-11T17:55:25.075Z,101177.97
2023-06-11T17:57:51.917Z,101169.03
2023-06-11T18:00:18.953Z,101176.34
2023-06-11T18:02:46.427Z,101173.63
2023-06-11T18:05:13.800Z,101177.50
2023-06-11T18:07:45.944Z,101170.38
2023-06-11T18:10:15.798Z,101172.38
2023-06-11T18:12:43.990Z,101174.47
2023-06-11T18:15:31.293Z,101170.13
2023-06-11T18:18:00.038Z,101170.56
2023-06-11T18:20:28.450Z,101168.19
2023-06-11T18:22:55.349Z,101175.69
2023-06-11T18:25:22.430Z,101173.31
2023-06-11T18:27:49.341Z,101177.13
2023-06-11T18:30:16.197Z,101178.25
2023-06-11T18:32:43.214Z,101180.38
2023-06-11T18:35:10.849Z,101174.28
2023-06-11T18:37:37.718Z,101170.00
2023-06-11T18:40:06.027Z,101176.72
2023-06-11T18:42:32.848Z,101170.63
2023-06-11T18:44:59.702Z,101166.38
2023-06-11T18:47:26.690Z,101162.25
2023-06-11T18:49:53.662Z,101161.53
2023-06-11T18:52:20.509Z,101161.84
2023-06-11T18:54:47.363Z,101167.66
2023-06-11T18:57:19.122Z,101165.28
2023-06-11T18:59:46.975Z,101162.03
2023-06-11T19:02:13.826Z,101171.56
2023-06-11T19:04:42.467Z,101171.91
2023-06-11T19:07:09.611Z,101178.72
2023-06-11T19:09:36.512Z,101169.16
2023-06-11T19:12:03.517Z,101169.69
2023-06-11T19:14:30.439Z,101176.63
2023-06-11T19:16:57.354Z,101173.44
2023-06-11T19:19:24.178Z,101175.78
2023-06-11T19:21:51.090Z,101180.81
2023-06-11T19:24:17.978Z,101178.66
2023-06-11T19:26:44.970Z,101178.34
2023-06-11T19:29:11.981Z,101179.75
2023-06-11T19:31:39.463Z,101167.66
2023-06-11T19:34:06.842Z,101176.31
2023-06-11T19:36:33.731Z,101174.22
2023-06-11T19:39:00.664Z,101177.38
2023-06-11T19:41:29.644Z,101179.78
2023-06-11T19:43:57.639Z,101169.44
2023-06-11T19:46:27.920Z,101176.28
2023-06-11T19:48:56.325Z,101177.81
2023-06-11T19:51:23.167Z,101184.69
2023-06-11T19:53:52.660Z,101184.09
2023-06-11T19:56:20.817Z,101183.66
2023-06-11T19:58:48.321Z,101186.03
2023-06-11T20:01:16.480Z,101187.47
2023-06-11T20:03:44.097Z,101180.56
2023-06-11T20:06:11.317Z,101187.44
2023-06-11T20:08:38.647Z,101191.53
2023-06-11T20:11:12.233Z,101191.97
2023-06-11T20:13:43.978Z,101190.69
2023-06-11T20:16:12.086Z,101192.00
2023-06-11T20:18:41.261Z,101203.28
2023-06-11T20:21:09.078Z,101196.50
2023-06-11T20:23:36.256Z,101196.03
2023-06-11T20:26:03.638Z,101191.84
2023-06-11T20:28:30.979Z,101195.88
2023-06-11T20:30:58.237Z,101194.44
2023-06-11T20:33:25.063Z,101197.66
2023-06-11T20:35:52.008Z,101207.97
2023-06-11T20:38:18.948Z,101203.75
2023-06-11T20:40:46.393Z,101205.91
2023-06-11T20:43:17.624Z,101201.72
2023-06-11T20:45:54.528Z,101212.03
2023-06-11T20:48:25.042Z,101197.16
2023-06-11T20:50:52.049Z,101202.88
2023-06-11T20:53:32.548Z,101202.34
2023-06-11T20:56:00.635Z,101203.66
2023-06-11T20:58:27.649Z,101200.38
2023-06-11T21:00:54.620Z,101202.50
2023-06-11T21:03:21.587Z,101200.13
2023-06-11T21:05:51.057Z,101204.91
2023-06-11T21:08:19.028Z,101200.78
2023-06-11T21:10:46.894Z,101206.44
2023-06-11T21:13:14.266Z,101200.41
2023-06-11T21:15:41.106Z,101204.28
2023-06-11T21:18:08.009Z,101203.59
2023-06-11T21:20:35.782Z,101204.84
2023-06-11T21:23:02.568Z,101206.75
2023-06-11T21:25:29.351Z,101210.63
2023-06-11T21:27:56.263Z,101210.84
2023-06-11T21:30:23.114Z,101211.03
2023-06-11T21:32:50.420Z,101211.19
2023-06-11T21:35:17.528Z,101216.91
2023-06-11T21:37:44.330Z,101216.22
2023-06-11T21:40:13.029Z,101211.94
2023-06-11T21:42:40.244Z,101215.78
2023-06-11T21:45:07.488Z,101215.09
2023-06-11T21:47:34.418Z,101221.56
2023-06-11T21:50:01.261Z,101210.19
2023-06-11T21:52:28.508Z,101220.38
2023-06-11T21:54:58.281Z,101220.53
2023-06-11T21:57:25.689Z,101212.66
2023-06-11T21:59:52.695Z,101221.06
2023-06-11T22:02:19.501Z,101219.50
2023-06-11T22:04:46.274Z,101217.03
2023-06-11T22:07:13.939Z,101218.25
2023-06-11T22:09:41.527Z,101218.53
2023-06-11T22:12:09.478Z,101209.69
2023-06-11T22:14:36.530Z,101218.97
2023-06-11T22:17:03.507Z,101216.47
2023-06-11T22:19:32.389Z,101222.28
2023-06-11T22:21:59.202Z,101216.13
2023-06-11T22:24:26.046Z,101220.84
2023-06-11T22:26:52.930Z,101220.16
2023-06-11T22:29:20.021Z,101216.81
2023-06-11T22:31:46.921Z,101212.47
2023-06-11T22:34:13.744Z,101218.13
2023-06-11T22:36:40.721Z,101222.84
2023-06-11T22:39:07.589Z,101219.41
2023-06-11T22:41:35.540Z,101223.25
2023-06-11T22:44:02.350Z,101231.59
2023-06-11T22:46:29.239Z,101223.69
2023-06-11T22:48:56.825Z,101228.50
2023-06-11T22:51:25.645Z,101223.31
2023-06-11T22:53:53.265Z,101232.63
2023-06-11T22:56:23.862Z,101224.91
2023-06-11T22:58:50.836Z,101221.56
2023-06-11T23:01:17.725Z,101218.03
2023-06-11T23:03:44.648Z,101225.41
2023-06-11T23:06:11.486Z,101231.00
2023-06-11T23:08:41.449Z,101226.53
2023-06-11T23:11:08.581Z,101223.97
2023-06-11T23:13:35.408Z,101224.13
2023-06-11T23:16:02.567Z,101225.19
2023-06-11T23:18:31.121Z,101225.41
2023-06-11T23:20:58.659Z,101220.25
2023-06-11T23:23:26.297Z,101220.31
2023-06-11T23:25:53.689Z,101221.25
2023-06-11T23:28:23.309Z,101213.31
2023-06-11T23:30:51.656Z,101218.78
2023-06-11T23:33:18.695Z,101219.84
2023-06-11T23:35:45.592Z,101215.47
2023-06-11T23:38:12.496Z,101211.88
2023-06-11T23:40:39.298Z,101211.13
2023-06-11T23:43:06.367Z,101211.25
2023-06-11T23:45:33.218Z,101203.19
2023-06-11T23:48:00.292Z,101199.75
2023-06-11T23:50:27.214Z,101196.22
2023-06-11T23:52:54.188Z,101200.91
2023-06-11T23:55:23.092Z,101194.72
2023-06-11T23:58:18.103Z,101194.94
